Ely, Iowa
Current Conditions -  °F | °C
As of 9:52 AM on Friday 19 Dec 2014 (Local Time) from KCID Reporting Station
Haze Haze  
Wind Chill: 21°   Ceiling: 4600
Heat Index: 26°   Visibility: 5mi
Dew Point: 21°   Wind: 5mph
Humidity: 81%   Direction: 160°SSE
Pressure: 30.31"   Gusts: NA
Location:  41.87°N, 91.59°W
Report Text: KCID 191552Z 16004KT 5SM HZ OVC046 M03/M06 A3031 RMK AO2 SLP277 T10331061 $
Loading
Personal Weather Stations






























Interactive Weather Map New forecast layout! Learn more

10-Day Weather Forecast

Advertisements
Track Severe Weather on mobile